Terminal Aerodrome Forecast
Issued by NWS

Home | Current Version | Previous Version | Text Only | Print | Product List | Glossary Off
Versions: 1 2 3 4 5 6 7 8 9 10 11 12 13 14 15 16

000
FTUS42 KMHX 191120
TAFOAJ
TAF
KOAJ 191120Z 1912/2012 00000KT P6SM SCT010
     FM191330 00000KT P6SM BKN040
     FM191700 VRB03KT P6SM VCTS SCT035CB
     FM192300 VRB04KT P6SM SCT050
     FM200900 VRB04KT 5SM BR FEW003
      AMD LTD TO CLD VIS AND WIND=

USA.gov is the U.S. government's official web portal to all federal, state and local government web resources and services.